Time;durP1;ratioP1;P1;durP2;ratioP2;P2;SDS_P1;SDS_P2;PMS_P1;PMS_P2;Temp;Humidity;BMP_temperature;BMP_pressure;BME280_temperature;BME280_humidity;BME280_pressure;Samples;Min_cycle;Max_cycle;Signal;HPM_P1;HPM_P2
2022/07/01 00:00:12;;;;;;;2.47;0.82;;;;;;;16.59;76.79;98612.22;4118318;28;20206;-56
2022/07/01 00:02:14;;;;;;;1.50;0.65;;;;;;;16.50;77.09;98603.69;4117010;28;20337;-56
2022/07/01 00:04:19;;;;;;;1.00;0.70;;;;;;;16.58;76.87;98594.81;4116675;28;20206;-56
2022/07/01 00:06:21;;;;;;;1.10;0.98;;;;;;;16.32;77.30;98604.34;4114227;28;22671;-56
2022/07/01 00:08:22;;;;;;;1.27;1.05;;;;;;;16.30;77.04;98608.50;4117329;28;20285;-56
2022/07/01 00:10:24;;;;;;;3.05;1.00;;;;;;;16.25;77.38;98614.88;4120129;28;20202;-56
2022/07/01 00:12:25;;;;;;;1.25;1.25;;;;;;;15.94;78.27;98601.47;4116312;28;20594;-57
2022/07/01 00:14:27;;;;;;;1.15;0.90;;;;;;;16.19;77.88;98599.44;4118163;28;20617;-56
2022/07/01 00:16:29;;;;;;;0.90;0.70;;;;;;;16.19;77.38;98602.19;4118274;28;20209;-57
2022/07/01 00:18:30;;;;;;;0.70;0.70;;;;;;;16.10;77.51;98586.50;4118641;28;20227;-56
2022/07/01 00:20:32;;;;;;;0.88;0.82;;;;;;;16.30;76.88;98589.16;4118535;28;20201;-56
2022/07/01 00:22:34;;;;;;;1.60;0.70;;;;;;;16.27;76.69;98587.78;4117871;28;20241;-56
2022/07/01 00:24:36;;;;;;;0.50;0.50;;;;;;;16.24;76.84;98582.81;4116842;28;20224;-57
2022/07/01 00:26:37;;;;;;;2.10;0.77;;;;;;;16.24;76.58;98591.09;4116704;28;20213;-56
2022/07/01 00:28:39;;;;;;;0.60;0.60;;;;;;;16.26;76.82;98597.19;4116283;28;20711;-56
2022/07/01 00:30:40;;;;;;;0.65;0.50;;;;;;;16.34;76.72;98610.41;4105392;28;20207;-56
2022/07/01 00:32:42;;;;;;;0.73;0.70;;;;;;;16.34;76.86;98612.31;4115285;28;20731;-56
2022/07/01 00:34:44;;;;;;;3.05;0.75;;;;;;;16.36;76.93;98608.16;4117895;28;20213;-56
2022/07/01 00:36:45;;;;;;;3.20;0.60;;;;;;;15.75;78.50;98593.00;4116098;28;20206;-55
2022/07/01 00:38:47;;;;;;;1.17;0.70;;;;;;;15.86;78.22;98613.09;4115941;28;20667;-56
2022/07/01 00:40:53;;;;;;;0.68;0.68;;;;;;;15.91;78.13;98644.25;4114802;28;20205;-56
2022/07/01 00:42:55;;;;;;;0.60;0.60;;;;;;;16.17;77.29;98642.25;4117312;28;20257;-56
2022/07/01 00:44:56;;;;;;;0.82;0.80;;;;;;;15.98;77.74;98658.63;4111017;28;20640;-54
2022/07/01 00:47:00;;;;;;;1.85;0.60;;;;;;;15.60;78.74;98652.91;4118657;28;21761;-56
2022/07/01 00:49:02;;;;;;;1.60;0.85;;;;;;;15.59;79.01;98657.63;4114026;28;20324;-55
2022/07/01 00:51:04;;;;;;;1.25;0.85;;;;;;;15.81;77.98;98655.34;4115892;28;20216;-56
2022/07/01 00:53:06;;;;;;;1.00;0.90;;;;;;;15.75;78.67;98656.47;4117455;28;20207;-56
2022/07/01 00:55:10;;;;;;;1.23;0.80;;;;;;;15.72;78.43;98665.31;4098781;28;20325;-55
2022/07/01 00:57:11;;;;;;;2.70;1.23;;;;;;;15.42;78.90;98651.56;4118877;28;20667;-56
2022/07/01 00:59:13;;;;;;;1.48;0.93;;;;;;;15.66;78.49;98662.81;4115800;28;20229;-55
2022/07/01 01:01:15;;;;;;;1.60;0.80;;;;;;;15.52;78.96;98662.59;4115923;28;20214;-56
2022/07/01 01:03:17;;;;;;;1.38;0.50;;;;;;;15.76;77.98;98666.38;4114600;28;20206;-55
2022/07/01 01:05:20;;;;;;;1.08;0.90;;;;;;;15.75;78.25;98663.94;4116780;28;20206;-55
2022/07/01 01:07:22;;;;;;;1.60;0.60;;;;;;;15.64;78.42;98663.09;4115786;28;20298;-56
2022/07/01 01:09:23;;;;;;;1.05;0.77;;;;;;;15.70;78.00;98664.75;4104532;28;20719;-55
2022/07/01 01:11:25;;;;;;;0.98;0.80;;;;;;;15.60;78.62;98667.53;4115960;28;20206;-56
2022/07/01 01:13:26;;;;;;;1.33;1.23;;;;;;;15.70;78.33;98664.75;4116324;28;20667;-54
2022/07/01 01:15:29;;;;;;;1.05;0.80;;;;;;;15.80;78.00;98661.97;4117263;28;20238;-54
2022/07/01 01:17:31;;;;;;;1.10;0.90;;;;;;;15.82;77.99;98656.19;4115809;28;20210;-55
2022/07/01 01:19:32;;;;;;;1.92;0.70;;;;;;;16.00;77.41;98641.75;4115661;28;20233;-55
2022/07/01 01:21:34;;;;;;;0.70;0.70;;;;;;;16.13;76.67;98655.78;4115793;28;20207;-54
2022/07/01 01:23:36;;;;;;;0.90;0.70;;;;;;;16.00;77.03;98659.16;4117656;28;20213;-54
2022/07/01 01:25:37;;;;;;;0.60;0.60;;;;;;;16.16;76.70;98660.75;4119336;28;20294;-55
2022/07/01 01:27:39;;;;;;;0.68;0.68;;;;;;;16.08;76.94;98672.38;4118717;28;20675;-55
2022/07/01 01:29:40;;;;;;;0.95;0.90;;;;;;;16.15;76.67;98672.91;4120244;28;20281;-55
2022/07/01 01:31:42;;;;;;;1.60;1.15;;;;;;;16.18;76.17;98672.34;4120116;28;20293;-56
2022/07/01 01:33:44;;;;;;;2.45;0.75;;;;;;;16.14;76.56;98682.28;4117210;28;20237;-54
2022/07/01 01:35:46;;;;;;;1.17;1.08;;;;;;;15.91;77.29;98688.41;4117976;28;20230;-55
2022/07/01 01:37:48;;;;;;;0.88;0.82;;;;;;;15.99;77.23;98685.13;4118752;28;20206;-55
2022/07/01 01:39:50;;;;;;;0.93;0.88;;;;;;;16.08;76.75;98694.47;4123944;28;20565;-55
2022/07/01 01:41:51;;;;;;;1.65;1.10;;;;;;;16.15;76.62;98700.50;4122378;28;20318;-54
2022/07/01 01:43:53;;;;;;;1.75;0.90;;;;;;;16.21;76.62;98704.06;4124221;28;20289;-55
2022/07/01 01:45:55;;;;;;;1.45;0.90;;;;;;;16.22;76.68;98701.03;4119358;28;20758;-54
2022/07/01 01:47:56;;;;;;;1.10;0.95;;;;;;;16.15;77.07;98703.28;4119196;28;20389;-56
2022/07/01 01:49:58;;;;;;;1.05;0.70;;;;;;;16.23;76.54;98694.41;4105576;28;20322;-55
2022/07/01 01:51:59;;;;;;;1.08;0.95;;;;;;;16.31;76.37;98693.00;4119129;28;20210;-56
2022/07/01 01:54:01;;;;;;;0.90;0.90;;;;;;;16.25;76.79;98697.72;4120365;28;20229;-55
2022/07/01 01:56:03;;;;;;;1.30;1.10;;;;;;;16.12;77.15;98692.81;4121242;28;20206;-54
2022/07/01 01:58:04;;;;;;;1.27;0.93;;;;;;;16.15;77.00;98683.94;4119648;28;20309;-55
2022/07/01 02:00:07;;;;;;;1.23;1.13;;;;;;;16.17;77.14;98687.22;4120584;28;20242;-55
2022/07/01 02:02:09;;;;;;;1.10;1.05;;;;;;;16.20;77.10;98678.41;4119604;28;20214;-54
2022/07/01 02:04:11;;;;;;;1.40;1.30;;;;;;;16.17;77.07;98684.47;4118730;28;20297;-55
2022/07/01 02:06:14;;;;;;;1.20;0.90;;;;;;;16.25;77.01;98683.91;4120414;28;20202;-55
2022/07/01 02:08:15;;;;;;;1.92;1.13;;;;;;;16.19;77.08;98685.03;4119459;28;20198;-55
2022/07/01 02:10:17;;;;;;;1.20;1.10;;;;;;;16.23;76.87;98693.59;4119746;28;20586;-55
2022/07/01 02:12:18;;;;;;;1.67;1.30;;;;;;;16.18;77.56;98699.97;4120396;28;20599;-55
2022/07/01 02:14:20;;;;;;;3.80;1.40;;;;;;;16.19;77.10;98689.72;4120680;28;20221;-55
2022/07/01 02:16:21;;;;;;;1.15;1.05;;;;;;;16.21;77.15;98676.44;4106452;28;20294;-55
2022/07/01 02:18:23;;;;;;;1.30;1.20;;;;;;;16.21;77.23;98679.22;4120492;28;20708;-55
2022/07/01 02:20:25;;;;;;;1.20;1.10;;;;;;;16.25;76.87;98686.69;4115579;28;20202;-55
2022/07/01 02:22:26;;;;;;;1.15;1.15;;;;;;;16.15;77.11;98686.69;4118688;28;20439;-55
2022/07/01 02:24:28;;;;;;;1.17;1.08;;;;;;;16.14;76.99;98687.81;4119357;28;20245;-55
2022/07/01 02:26:29;;;;;;;2.17;1.30;;;;;;;16.16;76.91;98687.53;4110980;28;20218;-55
2022/07/01 02:28:31;;;;;;;1.85;1.33;;;;;;;16.16;77.02;98691.09;4102246;28;20240;-55
2022/07/01 02:30:36;;;;;;;3.75;1.38;;;;;;;16.12;77.47;98679.00;4121150;28;20206;-55
2022/07/01 02:32:37;;;;;;;1.48;1.38;;;;;;;16.12;77.25;98678.16;4120458;28;20302;-55
2022/07/01 02:34:39;;;;;;;2.75;1.13;;;;;;;16.06;77.62;98662.72;4121259;28;20301;-55
2022/07/01 02:36:41;;;;;;;2.58;1.77;;;;;;;16.03;77.84;98644.78;4118805;28;20203;-56
2022/07/01 02:38:43;;;;;;;1.35;1.25;;;;;;;16.10;77.36;98637.00;4120548;28;20330;-56
2022/07/01 02:40:44;;;;;;;5.88;1.17;;;;;;;16.16;77.43;98646.94;4118300;28;20242;-55
2022/07/01 02:42:46;;;;;;;1.13;1.13;;;;;;;16.03;77.34;98646.72;4121181;28;20206;-55
2022/07/01 02:44:48;;;;;;;1.45;1.30;;;;;;;16.08;77.42;98654.97;4118028;28;20309;-55
2022/07/01 02:46:49;;;;;;;1.10;1.08;;;;;;;16.02;77.39;98661.66;4113218;28;20203;-55
2022/07/01 02:48:51;;;;;;;1.48;1.38;;;;;;;15.97;77.32;98667.97;4120216;28;20222;-55
2022/07/01 02:50:52;;;;;;;2.05;1.40;;;;;;;15.87;78.06;98669.94;4121206;28;20337;-56
2022/07/01 02:52:54;;;;;;;1.67;1.55;;;;;;;15.71;78.50;98657.31;4120971;28;20663;-55
2022/07/01 02:54:56;;;;;;;1.52;1.42;;;;;;;15.85;78.10;98656.44;4117594;28;20247;-55
2022/07/01 02:56:57;;;;;;;1.42;1.00;;;;;;;15.81;77.92;98655.34;4118099;28;20694;-55
2022/07/01 02:58:59;;;;;;;1.30;1.20;;;;;;;15.84;77.77;98654.78;4116529;28;20230;-55
2022/07/01 03:01:00;;;;;;;1.90;0.98;;;;;;;15.91;77.59;98652.53;4115999;28;20210;-55
2022/07/01 03:03:02;;;;;;;2.28;1.38;;;;;;;15.85;77.74;98661.97;4120308;28;20246;-55
2022/07/01 03:05:04;;;;;;;1.38;1.27;;;;;;;15.89;77.52;98665.00;4102311;28;20898;-55
2022/07/01 03:07:06;;;;;;;2.33;1.45;;;;;;;15.93;77.54;98680.72;4119896;28;20295;-55
2022/07/01 03:09:08;;;;;;;1.67;1.30;;;;;;;16.06;77.30;98671.84;4119472;28;20295;-55
2022/07/01 03:11:09;;;;;;;1.67;1.08;;;;;;;15.93;77.49;98669.66;4118024;28;20301;-55
2022/07/01 03:13:16;;;;;;;1.38;1.05;;;;;;;15.92;77.41;98676.31;4118034;28;20200;-55
2022/07/01 03:15:18;;;;;;;2.13;1.30;;;;;;;15.86;77.89;98674.66;4119998;28;20211;-55
2022/07/01 03:17:19;;;;;;;2.60;1.33;;;;;;;15.74;78.58;98687.94;4118454;28;20217;-55
2022/07/01 03:19:21;;;;;;;1.40;1.30;;;;;;;15.74;78.54;98692.59;4100594;28;20249;-55
2022/07/01 03:21:22;;;;;;;2.72;1.50;;;;;;;15.61;78.85;98682.97;4120849;28;20202;-54
2022/07/01 03:23:24;;;;;;;1.83;1.27;;;;;;;15.69;78.72;98689.88;4117934;28;20237;-55
2022/07/01 03:25:26;;;;;;;1.42;1.00;;;;;;;15.67;79.05;98692.91;4114754;28;20565;-55
2022/07/01 03:27:27;;;;;;;1.42;1.25;;;;;;;15.68;79.21;98700.06;4119485;28;20211;-56
2022/07/01 03:29:29;;;;;;;1.10;1.00;;;;;;;15.78;78.80;98700.06;4118183;28;20221;-56
2022/07/01 03:31:31;;;;;;;1.20;1.10;;;;;;;15.80;78.83;98695.09;4117397;28;20309;-54
2022/07/01 03:33:33;;;;;;;5.25;1.20;;;;;;;15.85;78.50;98695.09;4116024;28;20211;-55
2022/07/01 03:35:45;;;;;;;1.45;1.13;;;;;;;15.87;78.30;98694.78;4122003;28;20289;-56
2022/07/01 03:37:47;;;;;;;2.35;1.40;;;;;;;15.88;78.12;98694.50;4120282;28;20217;-55
2022/07/01 03:39:49;;;;;;;6.32;1.65;;;;;;;15.88;78.19;98679.88;4116946;28;20320;-56
2022/07/01 03:41:51;;;;;;;1.40;1.30;;;;;;;15.91;77.97;98682.91;4119594;28;21150;-56
2022/07/01 03:43:52;;;;;;;1.33;1.20;;;;;;;15.94;78.16;98676.84;4117846;28;20233;-55
2022/07/01 03:45:54;;;;;;;2.08;1.60;;;;;;;15.69;79.18;98668.63;4117366;28;20709;-55
2022/07/01 03:47:56;;;;;;;1.40;1.30;;;;;;;15.78;78.76;98678.00;4118858;28;20209;-56
2022/07/01 03:49:58;;;;;;;1.45;1.25;;;;;;;15.83;78.31;98677.97;4118047;28;20230;-55
2022/07/01 03:51:59;;;;;;;1.48;1.38;;;;;;;15.87;78.20;98675.47;4119588;28;20693;-57
2022/07/01 03:56:20;;;;;;;1.23;1.10;;;;;;;15.93;77.93;98658.63;4120760;28;20240;-56
2022/07/01 03:58:22;;;;;;;1.15;1.10;;;;;;;15.87;77.97;98659.75;4119390;28;20206;-56
2022/07/01 04:00:25;;;;;;;1.00;1.00;;;;;;;15.89;77.96;98674.09;4118944;28;20206;-56
2022/07/01 04:02:26;;;;;;;2.50;1.60;;;;;;;15.86;78.02;98680.19;4118242;28;20210;-56
2022/07/01 04:04:28;;;;;;;1.90;1.20;;;;;;;15.74;78.18;98685.16;4118175;28;20239;-56
2022/07/01 04:06:30;;;;;;;1.10;1.08;;;;;;;15.76;78.10;98687.66;4118182;28;20738;-56
2022/07/01 04:08:32;;;;;;;2.03;1.55;;;;;;;15.61;78.72;98688.50;4118475;28;20222;-56
2022/07/01 04:10:34;;;;;;;1.70;1.60;;;;;;;15.69;78.24;98690.69;4118667;28;20305;-58
2022/07/01 04:12:35;;;;;;;1.73;1.60;;;;;;;15.52;79.21;98698.44;4117895;28;20231;-58
2022/07/01 04:14:37;;;;;;;2.10;1.50;;;;;;;15.27;80.66;98692.91;4118402;28;21344;-57
2022/07/01 04:16:39;;;;;;;1.42;1.33;;;;;;;15.25;80.61;98692.38;4117240;28;20297;-57
2022/07/01 04:18:41;;;;;;;2.80;1.40;;;;;;;15.34;80.00;98692.66;4111548;28;20251;-56
2022/07/01 04:22:32;;;;;;;1.88;1.63;;;;;;;15.47;80.15;98703.97;4122273;28;20307;-57
2022/07/01 04:23:04;;;;;;;2.13;1.70;;;;;;;15.49;80.35;98707.25;4120089;28;20212;-56
2022/07/01 04:25:07;;;;;;;3.45;2.13;;;;;;;15.21;81.11;98707.78;4119106;28;20202;-55
2022/07/01 04:27:09;;;;;;;1.88;1.77;;;;;;;15.20;81.59;98722.69;4118001;28;20220;-57
2022/07/01 04:29:10;;;;;;;2.60;1.98;;;;;;;14.92;82.82;98720.44;4118429;28;20309;-57
2022/07/01 04:31:12;;;;;;;2.38;2.25;;;;;;;15.17;81.95;98725.97;4120801;28;20220;-56
2022/07/01 04:33:13;;;;;;;2.67;1.67;;;;;;;15.34;80.99;98726.56;4120380;28;20202;-55
2022/07/01 04:35:15;;;;;;;1.73;1.63;;;;;;;15.33;81.04;98735.97;4118439;28;20206;-55
2022/07/01 04:37:17;;;;;;;2.30;2.05;;;;;;;15.29;81.27;98729.28;4102296;28;20293;-56
2022/07/01 04:39:18;;;;;;;2.38;2.17;;;;;;;15.40;80.85;98719.97;4116275;28;20233;-56
2022/07/01 04:43:40;;;;;;;3.45;1.90;;;;;;;15.26;81.65;98718.84;4118246;28;20216;-56
2022/07/01 04:45:42;;;;;;;2.80;2.60;;;;;;;15.28;81.53;98722.13;4121554;28;20216;-57
2022/07/01 04:47:43;;;;;;;3.65;2.00;;;;;;;15.27;81.57;98737.03;4121181;28;20202;-57
2022/07/01 04:49:45;;;;;;;2.85;2.08;;;;;;;15.24;81.57;98726.53;4115865;28;20256;-57
2022/07/01 04:51:47;;;;;;;2.95;2.33;;;;;;;15.22;81.80;98728.75;4119386;28;20294;-56
2022/07/01 04:53:48;;;;;;;2.17;1.90;;;;;;;15.20;81.70;98735.63;4113477;28;20253;-55
2022/07/01 04:55:50;;;;;;;1.73;1.63;;;;;;;15.29;81.33;98740.31;4115085;28;20210;-56
2022/07/01 04:57:51;;;;;;;2.60;2.35;;;;;;;15.30;81.11;98736.47;4118777;28;20297;-56
2022/07/01 04:59:53;;;;;;;1.95;1.70;;;;;;;15.29;80.71;98726.53;4115851;28;20609;-55
2022/07/01 05:01:55;;;;;;;1.80;1.65;;;;;;;15.34;80.66;98734.00;4121690;28;20232;-56
2022/07/01 05:03:57;;;;;;;2.92;1.67;;;;;;;15.49;80.17;98729.31;4120944;28;20268;-55
2022/07/01 05:05:58;;;;;;;2.75;1.70;;;;;;;15.35;80.52;98735.69;4118058;28;20210;-55
2022/07/01 05:08:00;;;;;;;1.50;1.40;;;;;;;15.35;80.16;98730.97;4113099;28;20228;-54
2022/07/01 05:10:01;;;;;;;1.65;1.55;;;;;;;15.27;80.47;98731.50;4121293;28;20236;-55
2022/07/01 05:12:03;;;;;;;1.83;1.70;;;;;;;15.18;80.38;98724.91;4120946;28;20224;-56
2022/07/01 05:14:06;;;;;;;2.28;1.52;;;;;;;15.08;80.98;98722.13;4125287;28;20203;-56
2022/07/01 05:16:10;;;;;;;1.30;1.20;;;;;;;15.26;80.30;98718.00;4125686;28;20210;-55
2022/07/01 05:22:53;;;;;;;3.88;1.52;;;;;;;15.12;80.46;98717.72;4115806;28;20206;-83
2022/07/01 05:24:55;;;;;;;1.60;1.33;;;;;;;15.19;80.30;98731.22;4130271;28;20643;-84
2022/07/01 05:26:58;;;;;;;2.03;1.73;;;;;;;15.25;79.90;98739.25;4084334;29;20227;-84
2022/07/01 05:28:59;;;;;;;1.30;1.20;;;;;;;15.29;80.06;98729.28;4113388;28;20212;-85
2022/07/01 05:31:01;;;;;;;1.50;1.40;;;;;;;15.29;79.77;98706.44;4102566;28;20236;-83
2022/07/01 05:33:03;;;;;;;2.83;1.38;;;;;;;15.34;79.95;98721.06;4097305;28;20207;-82
2022/07/01 05:35:05;;;;;;;1.50;1.30;;;;;;;15.22;80.32;98725.97;4109937;28;20233;-83
2022/07/01 05:37:06;;;;;;;1.70;1.60;;;;;;;15.29;79.27;98718.25;4108990;28;20705;-83
2022/07/01 05:39:08;;;;;;;2.15;1.63;;;;;;;15.28;79.73;98719.38;4101535;28;20293;-83
2022/07/01 05:41:10;;;;;;;1.23;1.00;;;;;;;15.29;79.59;98729.28;4099277;28;20207;-84
2022/07/01 05:43:11;;;;;;;1.33;1.23;;;;;;;15.31;79.51;98737.31;4098207;28;20310;-83
2022/07/01 05:45:13;;;;;;;2.28;1.38;;;;;;;15.20;79.74;98728.19;4097585;28;20274;-82
2022/07/01 05:47:14;;;;;;;1.50;1.40;;;;;;;15.26;79.45;98727.09;4094179;28;20294;-83
2022/07/01 05:49:16;;;;;;;1.17;1.00;;;;;;;15.14;79.82;98723.78;4084640;29;20208;-83
2022/07/01 05:51:18;;;;;;;1.67;1.38;;;;;;;15.28;79.32;98724.03;4101282;28;20203;-83
2022/07/01 05:53:20;;;;;;;0.95;0.93;;;;;;;15.35;79.12;98739.25;4099964;28;20600;-84
2022/07/01 05:55:22;;;;;;;1.90;1.10;;;;;;;15.46;78.70;98751.97;4099253;28;20258;-84
2022/07/01 05:57:24;;;;;;;1.45;1.23;;;;;;;15.29;79.06;98745.03;4094983;28;20224;-84
2022/07/01 05:59:26;;;;;;;1.85;1.15;;;;;;;15.27;79.25;98752.72;4119360;28;20825;-83
2022/07/01 06:01:28;;;;;;;0.80;0.80;;;;;;;15.32;79.20;98745.34;4101188;28;20207;-85
2022/07/01 06:03:30;;;;;;;2.38;1.17;;;;;;;15.42;79.11;98739.00;4127982;28;20195;-86
2022/07/01 06:05:31;;;;;;;1.80;1.13;;;;;;;15.27;79.03;98744.44;4124412;28;20218;-83
2022/07/01 06:07:33;;;;;;;1.65;1.55;;;;;;;15.28;78.97;98732.31;4106903;28;20215;-83
2022/07/01 06:09:36;;;;;;;1.33;1.23;;;;;;;15.39;78.89;98734.84;4108375;28;20214;-83
2022/07/01 06:11:37;;;;;;;2.13;1.27;;;;;;;15.25;79.45;98743.91;4080340;29;20299;-86
2022/07/01 06:13:41;;;;;;;2.05;1.45;;;;;;;15.15;79.86;98747.47;4096679;29;20211;-82
2022/07/01 06:15:43;;;;;;;1.20;1.10;;;;;;;15.24;79.36;98748.59;4107391;28;20230;-83
2022/07/01 06:17:44;;;;;;;2.22;1.05;;;;;;;15.19;79.76;98751.34;4110705;28;20207;-84
2022/07/01 06:19:46;;;;;;;2.03;1.10;;;;;;;15.12;79.90;98756.31;4103224;28;20231;-85
2022/07/01 06:21:48;;;;;;;3.50;1.17;;;;;;;15.22;79.65;98761.81;4111950;28;20242;-83
2022/07/01 06:23:49;;;;;;;2.78;1.92;;;;;;;15.25;79.84;98752.19;4096980;28;20347;-83
2022/07/01 06:25:51;;;;;;;1.75;1.30;;;;;;;15.36;79.60;98757.47;4125180;28;20996;-83
2022/07/01 06:27:52;;;;;;;1.90;1.40;;;;;;;15.42;79.58;98761.88;4108260;28;20713;-82
2022/07/01 06:29:54;;;;;;;1.75;1.65;;;;;;;15.56;79.50;98768.50;4091483;29;20216;-83
2022/07/01 06:31:56;;;;;;;1.95;1.30;;;;;;;15.65;79.59;98777.06;4112393;28;20226;-84
2022/07/01 06:33:59;;;;;;;2.08;1.50;;;;;;;15.47;80.02;98781.19;4098626;29;20211;-84
2022/07/01 06:36:01;;;;;;;1.85;1.30;;;;;;;15.54;79.56;98781.75;4090773;28;20239;-84
2022/07/01 06:38:02;;;;;;;2.83;1.95;;;;;;;15.56;80.19;98768.50;4080055;29;20212;-83
2022/07/01 06:40:06;;;;;;;3.25;2.40;;;;;;;15.61;79.81;98764.91;4110886;28;20254;-84
2022/07/01 06:42:08;;;;;;;2.95;2.03;;;;;;;15.66;79.69;98768.50;4110640;28;20221;-85
2022/07/01 06:44:09;;;;;;;2.45;1.77;;;;;;;15.86;79.05;98773.19;4090508;28;20237;-84
2022/07/01 06:46:11;;;;;;;3.10;2.08;;;;;;;15.57;79.50;98764.63;4107600;28;20234;-83
2022/07/01 06:48:14;;;;;;;3.58;1.83;;;;;;;15.70;79.28;98769.59;4108375;28;20745;-83
2022/07/01 06:50:16;;;;;;;2.50;2.13;;;;;;;15.77;79.03;98785.88;4110604;28;20206;-83
2022/07/01 06:52:17;;;;;;;3.42;2.00;;;;;;;15.70;78.70;98785.34;4112788;28;20245;-83
2022/07/01 06:54:19;;;;;;;1.75;1.65;;;;;;;15.64;78.97;98787.25;4095640;29;20249;-83
2022/07/01 06:56:21;;;;;;;2.38;1.55;;;;;;;15.61;79.14;98793.34;4115988;28;20226;-84
2022/07/01 06:58:22;;;;;;;1.98;1.88;;;;;;;15.78;78.44;98815.97;4099710;28;20210;-85
2022/07/01 07:00:24;;;;;;;3.28;1.60;;;;;;;15.70;78.91;98824.78;4110731;28;21123;-83
2022/07/01 07:02:26;;;;;;;2.65;1.80;;;;;;;15.77;79.25;98830.03;4081265;29;20212;-82
2022/07/01 07:04:30;;;;;;;1.67;1.50;;;;;;;15.81;79.21;98853.19;4098275;28;20203;-83
2022/07/01 07:06:52;;;;;;;1.60;1.50;;;;;;;15.83;78.74;98868.38;4109238;28;20210;-82
2022/07/01 07:08:53;;;;;;;3.75;1.50;;;;;;;15.62;79.34;98872.25;4099356;28;21562;-84
2022/07/01 07:10:56;;;;;;;3.45;2.15;;;;;;;15.58;79.65;98875.81;4096199;28;20578;-83
2022/07/01 07:12:57;;;;;;;1.92;1.73;;;;;;;15.48;79.47;98876.63;4099635;28;20570;-83
2022/07/01 07:14:59;;;;;;;2.83;1.95;;;;;;;15.42;79.66;98871.38;4079314;29;20266;-84
2022/07/01 07:17:00;;;;;;;1.90;1.70;;;;;;;15.43;79.83;98865.56;4094300;28;20243;-82
2022/07/01 07:19:02;;;;;;;1.95;1.75;;;;;;;15.35;79.46;98865.31;4078787;29;20274;-84
2022/07/01 07:21:04;;;;;;;1.45;1.35;;;;;;;15.42;79.08;98854.84;4097725;28;20241;-83
2022/07/01 07:23:05;;;;;;;2.47;2.17;;;;;;;15.41;79.05;98837.44;4093616;28;20298;-84
2022/07/01 07:25:07;;;;;;;4.07;1.73;;;;;;;15.39;79.14;98828.63;4097540;28;20238;-85
2022/07/01 07:27:09;;;;;;;2.03;1.83;;;;;;;15.40;79.00;98833.03;4075144;29;20215;-84
2022/07/01 07:29:11;;;;;;;6.00;1.88;;;;;;;15.54;78.89;98820.38;4076231;29;20247;-84
2022/07/01 07:31:12;;;;;;;7.28;2.75;;;;;;;15.63;78.70;98824.22;4091623;28;20302;-83
2022/07/01 07:33:14;;;;;;;3.05;1.70;;;;;;;15.72;78.39;98822.59;4105662;28;20525;-83
2022/07/01 07:35:15;;;;;;;4.25;1.95;;;;;;;15.75;78.34;98827.53;4108897;28;20632;-83
2022/07/01 07:37:17;;;;;;;3.00;2.08;;;;;;;15.93;78.49;98824.25;4091191;28;20287;-83
2022/07/01 07:39:18;;;;;;;4.88;2.08;;;;;;;15.87;77.97;98811.53;4095538;28;20218;-86
2022/07/01 07:41:20;;;;;;;2.78;1.70;;;;;;;15.96;78.35;98814.59;4105177;28;20270;-83
2022/07/01 07:43:23;;;;;;;4.22;2.13;;;;;;;16.09;77.48;98823.13;4107923;28;20750;-84
2022/07/01 07:45:24;;;;;;;3.03;2.25;;;;;;;15.91;77.71;98809.88;4078846;29;20659;-84
2022/07/01 07:47:26;;;;;;;1.90;1.75;;;;;;;16.13;77.85;98802.13;4078588;29;20754;-84
2022/07/01 07:49:27;;;;;;;1.70;1.60;;;;;;;16.04;76.99;98822.31;4105469;28;20229;-85
2022/07/01 07:51:29;;;;;;;2.55;2.35;;;;;;;16.06;76.61;98801.59;4096512;28;20589;-85
2022/07/01 07:53:31;;;;;;;2.00;1.90;;;;;;;16.12;77.06;98808.78;4112027;28;20204;-83
2022/07/01 07:55:32;;;;;;;2.45;2.00;;;;;;;16.22;77.06;98805.97;4094652;28;20249;-84
2022/07/01 07:57:35;;;;;;;1.98;1.60;;;;;;;16.25;77.18;98810.97;4100597;28;20575;-85
2022/07/01 07:59:37;;;;;;;3.40;1.73;;;;;;;16.41;76.25;98809.84;4105326;28;20199;-82
2022/07/01 08:01:38;;;;;;;4.00;2.20;;;;;;;16.27;76.45;98803.22;4102980;28;20213;-84
2022/07/01 08:03:40;;;;;;;2.08;1.80;;;;;;;16.37;76.06;98805.94;4092835;29;20242;-85
2022/07/01 08:05:41;;;;;;;2.00;1.90;;;;;;;16.52;76.22;98805.94;4090197;28;20227;-84
2022/07/01 08:07:43;;;;;;;2.15;2.05;;;;;;;16.69;75.72;98806.41;4093537;28;20216;-84
2022/07/01 08:09:47;;;;;;;3.03;2.30;;;;;;;16.77;75.05;98803.06;4089335;28;20299;-83
2022/07/01 08:11:49;;;;;;;2.47;2.28;;;;;;;16.90;74.86;98807.97;4095622;28;20302;-83
2022/07/01 08:13:50;;;;;;;2.22;2.03;;;;;;;16.77;74.58;98814.13;4112699;28;20695;-85
2022/07/01 08:15:52;;;;;;;7.68;2.50;;;;;;;16.94;74.95;98814.63;4128583;28;20234;-85
2022/07/01 08:17:53;;;;;;;4.43;2.35;;;;;;;16.98;74.54;98826.78;4128473;28;20270;-86
2022/07/01 08:19:55;;;;;;;2.40;1.90;;;;;;;16.96;74.13;98822.63;4126467;28;20214;-85
2022/07/01 08:21:56;;;;;;;2.90;2.15;;;;;;;17.28;73.42;98815.53;4121696;28;20274;-84
2022/07/01 08:23:58;;;;;;;2.97;2.50;;;;;;;17.21;73.09;98815.03;4118762;28;20283;-86
2022/07/01 08:25:59;;;;;;;1.98;1.67;;;;;;;17.39;72.63;98817.97;4121071;28;20226;-86
2022/07/01 08:28:02;;;;;;;2.80;2.28;;;;;;;17.51;73.24;98825.94;4111857;28;20221;-85
2022/07/01 08:30:04;;;;;;;2.08;1.73;;;;;;;17.68;71.61;98837.44;4109966;28;20624;-86
2022/07/01 08:32:06;;;;;;;1.90;1.80;;;;;;;17.68;70.52;98841.03;4110614;28;20211;-85
2022/07/01 08:34:09;;;;;;;2.35;2.15;;;;;;;17.74;70.39;98852.91;4110406;28;20558;-85
2022/07/01 08:36:10;;;;;;;2.28;1.80;;;;;;;17.67;70.79;98847.69;4125430;28;20317;-85
2022/07/01 08:38:12;;;;;;;3.05;2.05;;;;;;;17.76;70.53;98853.44;4095141;28;20238;-85
2022/07/01 08:40:14;;;;;;;4.35;1.75;;;;;;;18.00;70.02;98857.13;4099788;28;20238;-86
2022/07/01 08:42:16;;;;;;;12.73;1.65;;;;;;;18.54;70.41;98864.13;4093416;28;20674;-85
2022/07/01 08:44:17;;;;;;;1.65;1.15;;;;;;;18.16;66.70;98866.94;4084248;29;20215;-84
2022/07/01 08:46:26;;;;;;;1.80;1.15;;;;;;;18.17;67.70;98865.81;4086032;28;20377;-86
2022/07/01 08:48:28;;;;;;;2.78;1.20;;;;;;;18.37;67.68;98876.75;4099128;28;20210;-86
2022/07/01 08:50:31;;;;;;;1.10;1.00;;;;;;;18.46;67.47;98875.03;4098613;28;20284;-85
2022/07/01 08:52:33;;;;;;;7.85;1.48;;;;;;;18.19;66.82;98871.94;4099518;28;20207;-85
2022/07/01 08:54:37;;;;;;;2.15;1.90;;;;;;;18.37;66.43;98869.28;4097619;28;20616;-85
2022/07/01 08:56:40;;;;;;;2.90;1.10;;;;;;;18.40;66.29;98873.41;4084892;28;20238;-85
2022/07/01 08:58:42;;;;;;;2.20;1.50;;;;;;;18.76;67.31;98870.00;4082981;28;20220;-85
2022/07/01 09:00:44;;;;;;;4.25;1.52;;;;;;;19.42;64.62;98872.81;4100764;28;21007;-84
2022/07/01 09:02:56;;;;;;;1.20;1.10;;;;;;;19.40;62.60;98866.72;4110842;28;20207;-84
2022/07/01 09:05:05;;;;;;;1.75;0.88;;;;;;;19.31;62.38;98874.09;4100426;29;20278;-85
2022/07/01 09:07:09;;;;;;;1.40;1.15;;;;;;;19.32;63.01;98886.84;4111719;28;20747;-85
2022/07/01 09:09:20;;;;;;;2.55;1.60;;;;;;;19.04;64.87;98882.97;4115959;28;20258;-85
2022/07/01 09:11:23;;;;;;;1.27;1.15;;;;;;;18.68;64.97;98886.44;4102722;28;20353;-85
2022/07/01 09:13:25;;;;;;;1.67;1.30;;;;;;;18.51;64.26;98886.06;4128863;28;20428;-86
2022/07/01 09:15:29;;;;;;;1.98;1.77;;;;;;;18.06;64.62;98883.66;4111511;28;20238;-84
2022/07/01 09:17:30;;;;;;;1.95;1.17;;;;;;;18.22;64.23;98882.41;4097389;29;20212;-86
2022/07/01 09:19:37;;;;;;;3.15;1.52;;;;;;;18.27;65.00;98890.69;4097694;28;20241;-85
2022/07/01 09:22:00;;;;;;;1.80;1.42;;;;;;;18.32;64.73;98885.13;4093669;28;20304;-84
2022/07/01 09:24:29;;;;;;;2.55;1.38;;;;;;;18.58;64.06;98889.34;4097238;28;20741;-86
2022/07/01 09:26:31;;;;;;;3.78;1.63;;;;;;;18.85;63.50;98893.19;4108718;28;20589;-84
2022/07/01 09:28:32;;;;;;;1.13;1.10;;;;;;;18.17;63.23;98886.06;4091879;28;20211;-85
2022/07/01 09:30:34;;;;;;;1.65;1.20;;;;;;;18.31;63.51;98887.06;4075370;29;20208;-85
2022/07/01 09:32:36;;;;;;;0.68;0.68;;;;;;;18.62;63.30;98887.59;4092995;28;20606;-84
2022/07/01 09:34:46;;;;;;;1.67;0.90;;;;;;;18.93;61.94;98888.94;4092925;28;20211;-84
2022/07/01 09:36:55;;;;;;;2.15;1.27;;;;;;;19.29;60.97;98888.25;4098079;28;20206;-85
2022/07/01 09:38:56;;;;;;;1.85;0.82;;;;;;;19.24;60.72;98890.28;4080677;29;20216;-85
2022/07/01 09:41:23;;;;;;;1.95;0.95;;;;;;;19.67;60.25;98878.00;4107474;28;20238;-85
2022/07/01 09:43:27;;;;;;;1.33;1.10;;;;;;;20.20;59.06;98887.75;4097831;29;20596;-85
2022/07/01 09:45:28;;;;;;;2.50;0.90;;;;;;;19.92;57.58;98881.22;4079592;29;20232;-85